createdAt,value
2023-04-12T00:02:24.839Z,11.94
2023-04-12T00:04:57.920Z,12.02
2023-04-12T00:07:26.092Z,11.99
2023-04-12T00:09:54.098Z,12.00
2023-04-12T00:12:21.821Z,11.99
2023-04-12T00:14:49.692Z,12.02
2023-04-12T00:17:19.098Z,12.01
2023-04-12T00:19:50.025Z,12.01
2023-04-12T00:22:19.254Z,12.00
2023-04-12T00:24:47.441Z,11.98
2023-04-12T00:27:15.303Z,11.93
2023-04-12T00:29:42.971Z,11.81
2023-04-12T00:32:10.677Z,11.76
2023-04-12T00:34:38.440Z,11.72
2023-04-12T00:37:06.323Z,11.68
2023-04-12T00:39:36.108Z,11.64
2023-04-12T00:42:05.188Z,11.58
2023-04-12T00:44:33.870Z,11.58
2023-04-12T00:47:02.743Z,11.54
2023-04-12T00:49:31.145Z,11.51
2023-04-12T00:52:03.345Z,11.51
2023-04-12T00:54:32.182Z,11.47
2023-04-12T00:57:02.198Z,11.41
2023-04-12T00:59:30.291Z,11.37
2023-04-12T01:01:59.401Z,11.33
2023-04-12T01:04:27.818Z,11.25
2023-04-12T01:07:10.204Z,11.18
2023-04-12T01:09:48.416Z,11.19
2023-04-12T01:12:26.823Z,11.19
2023-04-12T01:15:03.536Z,11.17
2023-04-12T01:17:37.948Z,11.16
2023-04-12T01:20:13.699Z,11.14
2023-04-12T01:23:00.655Z,11.12
2023-04-12T01:25:42.118Z,11.08
2023-04-12T01:28:15.683Z,11.06
2023-04-12T01:30:46.034Z,11.00
2023-04-12T01:33:15.363Z,11.00
2023-04-12T01:35:45.039Z,10.99
2023-04-12T01:38:12.994Z,10.98
2023-04-12T01:40:42.821Z,10.94
2023-04-12T01:43:14.025Z,10.93
2023-04-12T01:45:41.954Z,10.91
2023-04-12T01:48:12.358Z,10.86
2023-04-12T01:50:50.981Z,10.85
2023-04-12T01:53:23.905Z,10.85
2023-04-12T01:55:54.512Z,10.80
2023-04-12T01:58:25.235Z,10.75
2023-04-12T02:00:55.862Z,10.67
2023-04-12T02:03:24.802Z,10.63
2023-04-12T02:05:53.477Z,10.62
2023-04-12T02:08:21.324Z,10.63
2023-04-12T02:10:49.126Z,10.62
2023-04-12T02:13:18.165Z,10.61
2023-04-12T02:15:47.395Z,10.52
2023-04-12T02:18:16.986Z,10.48
2023-04-12T02:20:44.988Z,10.42
2023-04-12T02:23:14.114Z,10.41
2023-04-12T02:25:42.214Z,10.39
2023-04-12T02:28:09.943Z,10.36
2023-04-12T02:30:38.361Z,10.31
2023-04-12T02:33:07.901Z,10.29
2023-04-12T02:35:36.325Z,10.25
2023-04-12T02:38:07.923Z,10.26
2023-04-12T02:40:35.976Z,10.26
2023-04-12T02:43:03.701Z,10.24
2023-04-12T02:45:31.414Z,10.25
2023-04-12T02:47:59.772Z,10.23
2023-04-12T02:50:28.892Z,10.21
2023-04-12T02:52:56.624Z,10.19
2023-04-12T02:55:25.759Z,10.17
2023-04-12T02:57:53.755Z,10.12
2023-04-12T03:00:21.821Z,10.13
2023-04-12T03:02:51.647Z,10.09
2023-04-12T03:05:20.129Z,10.09
2023-04-12T03:07:49.728Z,10.05
2023-04-12T03:10:17.548Z,10.05
2023-04-12T03:12:45.300Z,10.04
2023-04-12T03:15:13.552Z,10.01
2023-04-12T03:17:42.969Z,9.92
2023-04-12T03:20:11.962Z,9.92
2023-04-12T03:22:39.717Z,9.87
2023-04-12T03:25:10.031Z,9.89
2023-04-12T03:27:38.372Z,9.88
2023-04-12T03:30:07.450Z,9.86
2023-04-12T03:32:35.674Z,9.89
2023-04-12T03:35:04.608Z,9.92
2023-04-12T03:37:32.646Z,9.83
2023-04-12T03:40:00.988Z,9.85
2023-04-12T03:42:33.691Z,9.89
2023-04-12T03:45:01.852Z,9.90
2023-04-12T03:47:29.938Z,9.90
2023-04-12T03:50:10.888Z,9.94
2023-04-12T03:52:40.050Z,9.92
2023-04-12T03:55:08.438Z,9.94
2023-04-12T03:57:38.510Z,9.92
2023-04-12T04:00:08.446Z,9.96
2023-04-12T04:02:36.841Z,9.95
2023-04-12T04:05:05.577Z,9.97
2023-04-12T04:07:33.542Z,9.94
2023-04-12T04:10:01.422Z,9.94
2023-04-12T04:12:29.185Z,9.95
2023-04-12T04:14:58.319Z,9.96
2023-04-12T04:17:26.093Z,9.95
2023-04-12T04:19:54.521Z,9.93
2023-04-12T04:22:23.021Z,9.90
2023-04-12T04:24:51.700Z,9.93
2023-04-12T04:27:20.491Z,9.93
2023-04-12T04:29:48.338Z,9.90
2023-04-12T04:32:17.462Z,9.95
2023-04-12T04:34:45.220Z,9.94
2023-04-12T04:37:13.322Z,9.92
2023-04-12T04:39:41.049Z,9.89
2023-04-12T04:42:08.740Z,9.90
2023-04-12T04:44:37.277Z,9.92
2023-04-12T04:47:06.918Z,9.89
2023-04-12T04:49:37.060Z,9.89
2023-04-12T04:52:05.265Z,9.92
2023-04-12T04:54:33.185Z,9.87
2023-04-12T04:57:01.677Z,9.91
2023-04-12T04:59:29.896Z,9.92
2023-04-12T05:01:57.747Z,9.91
2023-04-12T05:04:25.686Z,9.89
2023-04-12T05:06:54.923Z,9.84
2023-04-12T05:09:23.015Z,9.84
2023-04-12T05:11:50.757Z,9.79
2023-04-12T05:14:18.452Z,9.74
2023-04-12T05:16:46.307Z,9.69
2023-04-12T05:19:14.037Z,9.70
2023-04-12T05:21:41.808Z,9.75
2023-04-12T05:24:11.645Z,9.77
2023-04-12T05:26:39.415Z,9.75
2023-04-12T05:29:07.141Z,9.71
2023-04-12T05:31:34.885Z,9.70
2023-04-12T05:34:02.544Z,9.72
2023-04-12T05:36:30.593Z,9.74
2023-04-12T05:38:58.484Z,9.72
2023-04-12T05:41:27.744Z,9.73
2023-04-12T05:43:55.462Z,9.73
2023-04-12T05:46:23.181Z,9.75
2023-04-12T05:48:51.308Z,9.70
2023-04-12T05:51:25.225Z,9.70
2023-04-12T05:53:58.586Z,9.67
2023-04-12T05:56:30.437Z,9.67
2023-04-12T05:58:58.416Z,9.69
2023-04-12T06:01:32.350Z,9.72
2023-04-12T06:04:02.396Z,9.78
2023-04-12T06:06:31.471Z,9.84
2023-04-12T06:09:01.042Z,9.88
2023-04-12T06:11:30.888Z,9.92
2023-04-12T06:13:58.759Z,9.95
2023-04-12T06:16:26.508Z,9.91
2023-04-12T06:18:54.303Z,9.90
2023-04-12T06:21:22.562Z,9.92
2023-04-12T06:23:50.250Z,9.93
2023-04-12T06:26:18.681Z,9.94
2023-04-12T06:28:48.217Z,9.97
2023-04-12T06:31:17.566Z,10.04
2023-04-12T06:33:45.397Z,10.09
2023-04-12T06:36:14.695Z,10.08
2023-04-12T06:38:43.181Z,10.14
2023-04-12T06:41:11.694Z,10.18
2023-04-12T06:43:39.445Z,10.17
2023-04-12T06:46:09.105Z,10.14
2023-04-12T06:48:36.889Z,10.16
2023-04-12T06:51:04.802Z,10.20
2023-04-12T06:53:34.953Z,10.20
2023-04-12T06:56:05.241Z,10.19
2023-04-12T06:58:33.042Z,10.22
2023-04-12T07:01:06.354Z,10.17
2023-04-12T07:03:35.980Z,10.20
2023-04-12T07:06:13.794Z,10.17
2023-04-12T07:08:53.009Z,10.21
2023-04-12T07:11:22.548Z,10.21
2023-04-12T07:13:51.089Z,10.26
2023-04-12T07:16:19.301Z,10.31
2023-04-12T07:18:49.255Z,10.34
2023-04-12T07:21:17.980Z,10.41
2023-04-12T07:23:46.944Z,10.53
2023-04-12T07:26:14.645Z,10.65
2023-04-12T07:28:42.536Z,10.72
2023-04-12T07:31:10.442Z,10.74
2023-04-12T07:33:41.334Z,10.70
2023-04-12T07:36:12.934Z,10.62
2023-04-12T07:38:40.703Z,10.56
2023-04-12T07:41:08.698Z,10.59
2023-04-12T07:43:36.554Z,10.57
2023-04-12T07:46:08.559Z,10.58
2023-04-12T07:48:36.790Z,10.67
2023-04-12T07:51:05.168Z,10.74
2023-04-12T07:53:34.341Z,10.72
2023-04-12T07:56:04.920Z,10.71
2023-04-12T07:58:34.275Z,10.73
2023-04-12T08:01:01.985Z,10.77
2023-04-12T08:03:30.019Z,10.76
2023-04-12T08:05:58.149Z,10.80
2023-04-12T08:08:26.169Z,10.84
2023-04-12T08:10:55.273Z,10.84
2023-04-12T08:13:23.756Z,10.84
2023-04-12T08:15:51.502Z,10.85
2023-04-12T08:18:19.465Z,10.86
2023-04-12T08:20:49.214Z,10.93
2023-04-12T08:23:17.441Z,10.97
2023-04-12T08:25:45.136Z,11.03
2023-04-12T08:28:14.254Z,11.15
2023-04-12T08:30:43.657Z,11.17
2023-04-12T08:33:11.587Z,11.24
2023-04-12T08:35:39.905Z,11.30
2023-04-12T08:38:07.985Z,11.32
2023-04-12T08:40:36.669Z,11.38
2023-04-12T08:43:08.656Z,11.47
2023-04-12T08:45:38.667Z,11.47
2023-04-12T08:48:06.961Z,11.45
2023-04-12T08:50:34.902Z,11.40
2023-04-12T08:53:02.669Z,11.41
2023-04-12T08:55:30.504Z,11.37
2023-04-12T08:57:59.421Z,11.36
2023-04-12T09:00:28.466Z,11.35
2023-04-12T09:02:58.301Z,11.36
2023-04-12T09:05:31.353Z,11.43
2023-04-12T09:07:59.830Z,11.50
2023-04-12T09:10:35.222Z,11.53
2023-04-12T09:13:03.683Z,11.52
2023-04-12T09:15:31.978Z,11.48
2023-04-12T09:18:09.418Z,11.46
2023-04-12T09:20:38.241Z,11.47
2023-04-12T09:23:19.099Z,11.39
2023-04-12T09:25:48.405Z,11.34
2023-04-12T09:28:24.302Z,11.36
2023-04-12T09:30:53.398Z,11.35
2023-04-12T09:33:24.766Z,11.38
2023-04-12T09:36:02.083Z,11.53
2023-04-12T09:38:30.064Z,11.76
2023-04-12T09:40:57.963Z,11.92
2023-04-12T09:43:40.514Z,12.05
2023-04-12T09:46:12.743Z,12.07
2023-04-12T09:48:43.471Z,12.12
2023-04-12T09:51:11.965Z,12.27
2023-04-12T09:53:42.908Z,12.38
2023-04-12T09:56:12.879Z,12.55
2023-04-12T09:58:41.499Z,12.66
2023-04-12T10:01:14.660Z,12.79
2023-04-12T10:03:45.398Z,12.93
2023-04-12T10:06:14.491Z,13.03
2023-04-12T10:08:43.144Z,13.14
2023-04-12T10:11:11.614Z,13.27
2023-04-12T10:13:40.686Z,13.47
2023-04-12T10:16:11.146Z,13.55
2023-04-12T10:18:39.927Z,13.61
2023-04-12T10:21:09.794Z,13.60
2023-04-12T10:23:38.459Z,13.46
2023-04-12T10:26:06.929Z,13.03
2023-04-12T10:28:34.875Z,12.48
2023-04-12T10:31:29.685Z,12.18
2023-04-12T10:33:57.689Z,11.94
2023-04-12T10:36:54.495Z,11.75
2023-04-12T10:39:38.258Z,11.63
2023-04-12T10:42:23.898Z,11.64
2023-04-12T10:44:53.049Z,11.82
2023-04-12T10:48:01.466Z,12.11
2023-04-12T10:50:30.751Z,12.17
2023-04-12T10:53:25.195Z,12.17
2023-04-12T10:55:53.548Z,12.24
2023-04-12T10:58:56.264Z,12.34
2023-04-12T11:01:24.235Z,12.38
2023-04-12T11:04:12.537Z,12.60
2023-04-12T11:07:01.621Z,12.79
2023-04-12T11:09:39.532Z,12.94
2023-04-12T11:12:15.162Z,12.93
2023-04-12T11:14:47.721Z,13.10
2023-04-12T11:17:26.089Z,13.30
2023-04-12T11:20:01.443Z,13.55
2023-04-12T11:22:31.199Z,13.69
2023-04-12T11:25:02.261Z,13.83
2023-04-12T11:27:31.784Z,13.96
2023-04-12T11:30:01.625Z,14.08
2023-04-12T11:32:31.450Z,14.22
2023-04-12T11:35:00.235Z,14.26
2023-04-12T11:37:28.638Z,14.27
2023-04-12T11:39:59.944Z,14.26
2023-04-12T11:42:30.231Z,14.19
2023-04-12T11:45:03.993Z,14.18
2023-04-12T11:47:34.848Z,14.11
2023-04-12T11:50:02.669Z,14.07
2023-04-12T11:52:31.814Z,14.24
2023-04-12T11:55:02.435Z,14.40
2023-04-12T11:57:31.690Z,14.55
2023-04-12T12:00:00.831Z,14.77
2023-04-12T12:02:34.453Z,14.92
2023-04-12T12:05:06.965Z,14.95
2023-04-12T12:07:35.825Z,14.98
2023-04-12T12:10:03.810Z,15.00
2023-04-12T12:12:36.085Z,15.03
2023-04-12T12:15:03.849Z,15.05
2023-04-12T12:17:31.750Z,15.10
2023-04-12T12:20:01.543Z,15.17
2023-04-12T12:22:29.830Z,15.25
2023-04-12T12:24:59.629Z,15.41
2023-04-12T12:27:38.403Z,15.54
2023-04-12T12:30:09.710Z,15.56
2023-04-12T12:32:39.125Z,15.49
2023-04-12T12:35:10.647Z,15.41
2023-04-12T12:37:38.616Z,15.43
2023-04-12T12:40:11.482Z,15.39
2023-04-12T12:42:48.543Z,15.39
2023-04-12T12:45:17.598Z,15.40
2023-04-12T12:47:54.067Z,15.39
2023-04-12T12:50:25.071Z,15.45
2023-04-12T12:52:54.193Z,15.46
2023-04-12T12:55:23.511Z,15.39
2023-04-12T12:58:07.371Z,15.34
2023-04-12T13:00:36.756Z,15.24
2023-04-12T13:03:05.217Z,15.18
2023-04-12T13:05:35.881Z,15.10
2023-04-12T13:08:03.717Z,15.05
2023-04-12T13:10:31.438Z,15.09
2023-04-12T13:13:01.694Z,15.19
2023-04-12T13:15:29.507Z,15.35
2023-04-12T13:17:57.445Z,15.43
2023-04-12T13:20:25.681Z,15.48
2023-04-12T13:22:53.451Z,15.54
2023-04-12T13:25:22.320Z,15.53
2023-04-12T13:27:50.768Z,15.29
2023-04-12T13:30:20.694Z,14.85
2023-04-12T13:32:48.538Z,14.04
2023-04-12T13:35:16.345Z,13.06
2023-04-12T13:37:44.209Z,12.56
2023-04-12T13:40:15.455Z,12.22
2023-04-12T13:42:43.578Z,12.14
2023-04-12T13:45:12.514Z,12.17
2023-04-12T13:47:42.124Z,12.19
2023-04-12T13:50:11.042Z,12.02
2023-04-12T13:52:39.100Z,12.01
2023-04-12T13:55:09.229Z,12.00
2023-04-12T13:57:39.725Z,11.94
2023-04-12T14:00:09.568Z,11.95
2023-04-12T14:02:37.555Z,11.97
2023-04-12T14:05:08.449Z,11.89
2023-04-12T14:07:36.825Z,11.91
2023-04-12T14:10:05.081Z,11.83
2023-04-12T14:12:32.932Z,11.93
2023-04-12T14:15:00.685Z,11.98
2023-04-12T14:17:32.463Z,11.97
2023-04-12T14:20:00.822Z,12.00
2023-04-12T14:22:30.239Z,12.07
2023-04-12T14:24:58.181Z,12.11
2023-04-12T14:27:26.286Z,12.10
2023-04-12T14:29:54.175Z,12.10
2023-04-12T14:32:22.644Z,12.01
2023-04-12T14:34:50.501Z,12.01
2023-04-12T14:37:19.283Z,12.07
2023-04-12T14:39:51.150Z,12.09
2023-04-12T14:45:24.014Z,12.21
2023-04-12T14:47:51.962Z,12.33
2023-04-12T14:50:19.908Z,12.34
2023-04-12T14:52:47.673Z,12.34
2023-04-12T14:55:17.917Z,12.15
2023-04-12T14:57:45.660Z,12.03
2023-04-12T15:00:15.498Z,12.07
2023-04-12T15:02:44.474Z,12.09
2023-04-12T15:05:12.484Z,12.12
2023-04-12T15:07:41.403Z,11.89
2023-04-12T15:10:11.219Z,11.76
2023-04-12T15:12:40.499Z,11.70
2023-04-12T15:15:09.596Z,11.66
2023-04-12T15:17:37.717Z,11.56
2023-04-12T15:20:09.643Z,11.29
2023-04-12T15:22:39.122Z,11.27
2023-04-12T15:25:10.657Z,11.37
2023-04-12T15:27:40.791Z,11.62
2023-04-12T15:30:17.657Z,11.92
2023-04-12T15:32:47.057Z,12.11
2023-04-12T15:35:25.804Z,12.27
2023-04-12T15:37:55.160Z,12.38
2023-04-12T15:40:24.325Z,12.43
2023-04-12T15:42:53.666Z,12.46
2023-04-12T15:45:22.079Z,12.42
2023-04-12T15:47:50.169Z,12.50
2023-04-12T15:50:19.112Z,12.50
2023-04-12T15:52:47.266Z,12.59
2023-04-12T15:55:20.194Z,12.63
2023-04-12T15:57:48.574Z,12.75
2023-04-12T16:00:26.043Z,12.76
2023-04-12T16:02:56.419Z,12.64
2023-04-12T16:05:26.569Z,12.40
2023-04-12T16:07:56.865Z,12.26
2023-04-12T16:10:24.809Z,12.17
2023-04-12T16:12:54.433Z,12.09
2023-04-12T16:15:24.074Z,11.94
2023-04-12T16:17:54.410Z,11.90
2023-04-12T16:20:23.156Z,11.59
2023-04-12T16:22:54.278Z,11.38
2023-04-12T16:25:23.327Z,11.03
2023-04-12T16:27:51.092Z,10.83
2023-04-12T16:30:19.105Z,10.89
2023-04-12T16:32:48.932Z,11.01
2023-04-12T16:35:17.097Z,10.82
2023-04-12T16:37:45.201Z,10.65
2023-04-12T16:40:14.724Z,10.60
2023-04-12T16:42:42.758Z,10.72
2023-04-12T16:45:13.912Z,10.81
2023-04-12T16:47:42.069Z,10.97
2023-04-12T16:50:13.553Z,11.14
2023-04-12T16:52:41.939Z,11.28
2023-04-12T16:55:12.302Z,11.27
2023-04-12T16:57:42.853Z,11.33
2023-04-12T17:00:19.546Z,11.34
2023-04-12T17:02:49.804Z,11.43
2023-04-12T17:05:20.079Z,11.53
2023-04-12T17:07:49.986Z,11.60
2023-04-12T17:10:18.746Z,11.67
2023-04-12T17:12:46.825Z,11.63
2023-04-12T17:15:17.343Z,11.56
2023-04-12T17:17:45.392Z,11.45
2023-04-12T17:20:14.198Z,11.36
2023-04-12T17:22:43.494Z,11.25
2023-04-12T17:25:11.857Z,11.20
2023-04-12T17:27:41.053Z,11.13
2023-04-12T17:30:12.341Z,11.06
2023-04-12T17:32:41.248Z,11.03
2023-04-12T17:35:13.580Z,11.04
2023-04-12T17:37:43.037Z,10.99
2023-04-12T17:40:11.813Z,10.94
2023-04-12T17:42:40.178Z,10.88
2023-04-12T17:45:11.093Z,10.81
2023-04-12T17:47:39.020Z,10.80
2023-04-12T17:50:08.545Z,10.73
2023-04-12T17:52:36.985Z,10.70
2023-04-12T17:55:07.528Z,10.65
2023-04-12T17:57:35.595Z,10.66
2023-04-12T18:00:04.081Z,10.58
2023-04-12T18:02:32.148Z,10.52
2023-04-12T18:05:00.225Z,10.51
2023-04-12T18:07:28.224Z,10.51
2023-04-12T18:09:58.606Z,10.48
2023-04-12T18:12:28.084Z,10.43
2023-04-12T18:14:55.869Z,10.37
2023-04-12T18:17:26.404Z,10.33
2023-04-12T18:19:54.861Z,10.33
2023-04-12T18:22:22.630Z,10.30
2023-04-12T18:24:50.653Z,10.25
2023-04-12T18:27:18.418Z,10.22
2023-04-12T18:29:47.577Z,10.19
2023-04-12T18:32:15.496Z,10.15
2023-04-12T18:34:46.522Z,10.11
2023-04-12T18:37:14.266Z,9.99
2023-04-12T18:39:43.062Z,9.94
2023-04-12T18:42:10.874Z,9.94
2023-04-12T18:44:40.549Z,9.91
2023-04-12T18:47:10.104Z,9.89
2023-04-12T18:49:40.312Z,9.83
2023-04-12T18:52:08.143Z,9.82
2023-04-12T18:54:36.149Z,9.81
2023-04-12T18:57:04.076Z,9.79
2023-04-12T18:59:32.062Z,9.80
2023-04-12T19:01:59.943Z,9.81
2023-04-12T19:04:29.338Z,9.81
2023-04-12T19:06:57.697Z,9.80
2023-04-12T19:09:25.434Z,9.78
2023-04-12T19:11:55.506Z,9.71
2023-04-12T19:14:23.335Z,9.64
2023-04-12T19:16:51.580Z,9.62
2023-04-12T19:19:19.336Z,9.57
2023-04-12T19:21:48.437Z,9.49
2023-04-12T19:24:16.165Z,9.49
2023-04-12T19:26:47.134Z,9.43
2023-04-12T19:29:16.177Z,9.39
2023-04-12T19:31:45.870Z,9.34
2023-04-12T19:34:16.287Z,9.26
2023-04-12T19:36:45.389Z,9.16
2023-04-12T19:39:15.581Z,9.16
2023-04-12T19:41:43.352Z,9.16
2023-04-12T19:44:11.030Z,9.17
2023-04-12T19:46:38.963Z,9.14
2023-04-12T19:49:07.013Z,9.11
2023-04-12T19:51:34.831Z,9.07
2023-04-12T19:54:02.822Z,9.06
2023-04-12T19:56:32.262Z,9.02
2023-04-12T19:59:00.496Z,9.00
2023-04-12T20:01:28.453Z,8.96
2023-04-12T20:03:56.249Z,8.97
2023-04-12T20:06:26.870Z,8.98
2023-04-12T20:08:54.597Z,9.05
2023-04-12T20:11:22.622Z,9.08
2023-04-12T20:13:52.247Z,9.11
2023-04-12T20:16:20.269Z,9.12
2023-04-12T20:18:48.113Z,9.13
2023-04-12T20:21:15.969Z,9.16
2023-04-12T20:23:43.826Z,9.23
2023-04-12T20:26:11.648Z,9.23
2023-04-12T20:28:39.435Z,9.20
2023-04-12T20:31:08.812Z,9.20
2023-04-12T20:33:36.807Z,9.17
2023-04-12T20:36:07.047Z,9.14
2023-04-12T20:38:35.937Z,9.11
2023-04-12T20:41:04.189Z,9.06
2023-04-12T20:43:34.819Z,9.04
2023-04-12T20:46:05.201Z,9.00
2023-04-12T20:48:34.964Z,8.94
2023-04-12T20:51:03.476Z,8.96
2023-04-12T20:53:31.392Z,8.94
2023-04-12T20:55:59.365Z,8.92
2023-04-12T20:58:34.457Z,8.90
2023-04-12T21:01:05.289Z,8.83
2023-04-12T21:03:35.913Z,8.80
2023-04-12T21:06:04.036Z,8.76
2023-04-12T21:08:33.854Z,8.69
2023-04-12T21:11:02.127Z,8.65
2023-04-12T21:13:31.386Z,8.62
2023-04-12T21:16:00.685Z,8.60
2023-04-12T21:18:28.444Z,8.55
2023-04-12T21:21:00.929Z,8.51
2023-04-12T21:23:29.177Z,8.47
2023-04-12T21:25:56.999Z,8.41
2023-04-12T21:28:24.771Z,8.39
2023-04-12T21:30:55.185Z,8.39
2023-04-12T21:33:24.736Z,8.37
2023-04-12T21:35:54.456Z,8.30
2023-04-12T21:38:24.348Z,8.25
2023-04-12T21:40:57.347Z,8.23
2023-04-12T21:43:25.570Z,8.19
2023-04-12T21:45:54.550Z,8.21
2023-04-12T21:48:22.644Z,8.18
2023-04-12T21:50:50.610Z,8.17
2023-04-12T21:53:18.371Z,8.15
2023-04-12T21:55:49.576Z,8.09
2023-04-12T21:58:18.057Z,8.07
2023-04-12T22:00:45.955Z,8.06
2023-04-12T22:03:14.408Z,8.01
2023-04-12T22:05:44.558Z,8.00
2023-04-12T22:08:14.158Z,7.96
2023-04-12T22:10:42.502Z,7.93
2023-04-12T22:13:11.698Z,7.92
2023-04-12T22:15:40.549Z,7.90
2023-04-12T22:18:08.273Z,7.89
2023-04-12T22:20:36.248Z,7.94
2023-04-12T22:23:04.020Z,7.98
2023-04-12T22:25:31.876Z,7.98
2023-04-12T22:27:59.582Z,7.94
2023-04-12T22:30:30.653Z,7.91
2023-04-12T22:33:00.009Z,7.86
2023-04-12T22:35:30.034Z,7.86
2023-04-12T22:37:58.561Z,7.84
2023-04-12T22:40:26.358Z,7.84
2023-04-12T22:42:54.092Z,7.84
2023-04-12T22:45:21.865Z,7.82
2023-04-12T22:47:51.122Z,7.79
2023-04-12T22:50:19.659Z,7.78
2023-04-12T22:52:49.885Z,7.79
2023-04-12T22:55:18.317Z,7.80
2023-04-12T22:57:47.006Z,7.82
2023-04-12T23:00:18.043Z,7.79
2023-04-12T23:02:47.789Z,7.79
2023-04-12T23:05:17.472Z,7.82
2023-04-12T23:07:45.365Z,7.83
2023-04-12T23:10:13.267Z,7.88
2023-04-12T23:12:41.284Z,7.91
2023-04-12T23:15:10.304Z,7.94
2023-04-12T23:17:38.383Z,8.01
2023-04-12T23:20:12.129Z,8.06
2023-04-12T23:22:57.545Z,8.09
2023-04-12T23:25:29.154Z,8.11
2023-04-12T23:27:57.397Z,8.10
2023-04-12T23:30:26.781Z,8.11
2023-04-12T23:32:54.651Z,8.11
2023-04-12T23:35:22.446Z,8.12
2023-04-12T23:37:53.420Z,8.20
2023-04-12T23:40:21.218Z,8.25
2023-04-12T23:42:50.871Z,8.28
2023-04-12T23:45:18.860Z,8.34
2023-04-12T23:47:46.799Z,8.38
2023-04-12T23:50:14.603Z,8.41
2023-04-12T23:52:42.413Z,8.42
2023-04-12T23:55:11.979Z,8.47
2023-04-12T23:57:39.898Z,8.51
